createdAt,value
2023-03-03T00:00:08.374Z,1.70
2023-03-03T00:02:35.190Z,1.71
2023-03-03T00:05:01.975Z,1.62
2023-03-03T00:07:28.557Z,1.55
2023-03-03T00:09:55.427Z,1.64
2023-03-03T00:12:30.315Z,1.60
2023-03-03T00:14:57.106Z,1.51
2023-03-03T00:17:26.938Z,1.50
2023-03-03T00:19:54.303Z,1.55
2023-03-03T00:22:38.308Z,1.51
2023-03-03T00:25:29.131Z,1.56
2023-03-03T00:27:56.680Z,1.49
2023-03-03T00:30:25.514Z,1.54
2023-03-03T00:32:55.887Z,1.62
2023-03-03T00:35:38.938Z,1.60
2023-03-03T00:38:18.167Z,1.65
2023-03-03T00:40:45.444Z,1.57
2023-03-03T00:43:36.130Z,1.58
2023-03-03T00:46:03.208Z,1.42
2023-03-03T00:48:33.268Z,1.47
2023-03-03T00:51:01.535Z,1.39
2023-03-03T00:53:30.165Z,1.54
2023-03-03T00:55:57.099Z,1.50
2023-03-03T00:58:25.647Z,1.50
2023-03-03T01:00:54.506Z,1.59
2023-03-03T01:03:24.046Z,1.54
2023-03-03T01:05:51.696Z,1.54
2023-03-03T01:08:19.869Z,1.57
2023-03-03T01:10:52.432Z,1.47
2023-03-03T01:13:21.072Z,1.44
2023-03-03T01:15:49.131Z,1.47
2023-03-03T01:18:16.134Z,1.54
2023-03-03T01:20:42.981Z,1.57
2023-03-03T01:23:09.586Z,1.58
2023-03-03T01:25:36.661Z,1.56
2023-03-03T01:28:03.644Z,1.72
2023-03-03T01:30:31.693Z,1.64
2023-03-03T01:32:58.713Z,1.49
2023-03-03T01:35:25.395Z,1.60
2023-03-03T01:37:52.184Z,1.46
2023-03-03T01:40:24.929Z,1.49
2023-03-03T01:42:52.909Z,1.33
2023-03-03T01:45:26.044Z,1.43
2023-03-03T01:48:05.668Z,1.60
2023-03-03T01:51:10.189Z,1.59
2023-03-03T01:53:39.919Z,1.67
2023-03-03T01:56:07.831Z,1.66
2023-03-03T01:58:41.812Z,1.65
2023-03-03T02:01:14.818Z,1.66
2023-03-03T02:03:42.266Z,1.43
2023-03-03T02:06:15.348Z,1.58
2023-03-03T02:09:15.201Z,1.62
2023-03-03T02:11:43.409Z,1.59
2023-03-03T02:14:11.762Z,1.60
2023-03-03T02:16:39.272Z,1.47
2023-03-03T02:19:10.066Z,1.38
2023-03-03T02:21:36.619Z,1.26
2023-03-03T02:24:12.368Z,1.38
2023-03-03T02:26:42.878Z,1.38
2023-03-03T02:29:10.615Z,1.52
2023-03-03T02:31:38.786Z,1.35
2023-03-03T02:34:06.226Z,1.32
2023-03-03T02:36:39.210Z,1.26
2023-03-03T02:39:26.922Z,1.29
2023-03-03T02:42:24.200Z,1.29
2023-03-03T02:44:50.788Z,1.30
2023-03-03T02:47:18.017Z,1.23
2023-03-03T02:49:45.360Z,1.22
2023-03-03T02:52:15.548Z,1.22
2023-03-03T02:54:42.139Z,1.16
2023-03-03T02:57:09.232Z,1.01
2023-03-03T02:59:35.837Z,1.16
2023-03-03T03:02:02.496Z,1.05
2023-03-03T03:04:29.328Z,1.15
2023-03-03T03:06:56.689Z,1.20
2023-03-03T03:09:25.364Z,1.26
2023-03-03T03:11:52.322Z,1.22
2023-03-03T03:14:19.034Z,1.15
2023-03-03T03:16:45.644Z,1.22
2023-03-03T03:19:12.704Z,1.36
2023-03-03T03:21:39.632Z,1.34
2023-03-03T03:24:06.705Z,1.16
2023-03-03T03:26:33.484Z,1.12
2023-03-03T03:29:00.189Z,1.04
2023-03-03T03:31:27.349Z,1.17
2023-03-03T03:33:54.157Z,1.25
2023-03-03T03:36:20.903Z,1.32
2023-03-03T03:38:47.555Z,1.17
2023-03-03T03:41:14.281Z,1.07
2023-03-03T03:43:41.233Z,0.91
2023-03-03T03:46:08.570Z,1.01
2023-03-03T03:48:35.623Z,0.84
2023-03-03T03:51:02.399Z,1.06
2023-03-03T03:53:29.109Z,1.03
2023-03-03T03:55:56.661Z,1.01
2023-03-03T03:58:23.386Z,1.15
2023-03-03T04:00:50.348Z,1.11
2023-03-03T04:03:17.062Z,1.28
2023-03-03T04:05:44.299Z,1.19
2023-03-03T04:08:11.415Z,1.20
2023-03-03T04:10:38.494Z,1.21
2023-03-03T04:13:05.198Z,1.25
2023-03-03T04:15:31.994Z,1.33
2023-03-03T04:17:58.671Z,1.47
2023-03-03T04:20:25.355Z,1.26
2023-03-03T04:22:52.291Z,1.28
2023-03-03T04:25:19.089Z,1.26
2023-03-03T04:27:45.830Z,1.25
2023-03-03T04:30:14.238Z,1.34
2023-03-03T04:32:41.863Z,1.19
2023-03-03T04:35:09.113Z,1.33
2023-03-03T04:37:36.394Z,1.52
2023-03-03T04:40:05.144Z,1.28
2023-03-03T04:42:31.844Z,1.26
2023-03-03T04:44:58.571Z,1.25
2023-03-03T04:47:25.259Z,1.25
2023-03-03T04:49:51.942Z,1.14
2023-03-03T04:52:18.692Z,0.95
2023-03-03T04:54:45.710Z,1.05
2023-03-03T04:57:12.371Z,0.99
2023-03-03T04:59:39.087Z,0.98
2023-03-03T05:02:05.913Z,1.17
2023-03-03T05:04:33.467Z,1.33
2023-03-03T05:07:00.195Z,1.29
2023-03-03T05:09:27.625Z,1.10
2023-03-03T05:11:54.381Z,1.06
2023-03-03T05:14:21.362Z,1.10
2023-03-03T05:16:48.178Z,1.32
2023-03-03T05:19:15.227Z,1.34
2023-03-03T05:21:42.867Z,1.27
2023-03-03T05:24:13.693Z,1.24
2023-03-03T05:26:40.777Z,1.13
2023-03-03T05:29:08.286Z,1.14
2023-03-03T05:31:35.071Z,1.12
2023-03-03T05:34:02.161Z,1.15
2023-03-03T05:36:28.840Z,1.13
2023-03-03T05:38:55.584Z,1.15
2023-03-03T05:41:22.557Z,1.15
2023-03-03T05:43:49.248Z,1.27
2023-03-03T05:46:16.180Z,1.42
2023-03-03T05:48:43.192Z,1.42
2023-03-03T05:51:10.014Z,1.35
2023-03-03T05:53:36.843Z,1.50
2023-03-03T05:56:04.073Z,1.36
2023-03-03T05:58:30.776Z,1.26
2023-03-03T06:00:57.711Z,1.27
2023-03-03T06:03:24.490Z,1.12
2023-03-03T06:05:51.137Z,1.34
2023-03-03T06:08:17.914Z,1.22
2023-03-03T06:10:44.629Z,1.13
2023-03-03T06:13:11.461Z,1.15
2023-03-03T06:15:38.293Z,1.19
2023-03-03T06:18:05.250Z,1.38
2023-03-03T06:20:32.255Z,1.11
2023-03-03T06:22:59.205Z,1.13
2023-03-03T06:25:25.920Z,1.08
2023-03-03T06:27:53.214Z,1.22
2023-03-03T06:30:20.403Z,1.31
2023-03-03T06:32:47.439Z,1.36
2023-03-03T06:35:14.707Z,1.10
2023-03-03T06:37:41.829Z,0.93
2023-03-03T06:40:10.860Z,1.04
2023-03-03T06:42:37.572Z,1.07
2023-03-03T06:45:04.837Z,1.12
2023-03-03T06:47:31.765Z,1.04
2023-03-03T06:49:58.382Z,0.95
2023-03-03T06:52:26.893Z,1.14
2023-03-03T06:54:59.124Z,1.11
2023-03-03T06:57:31.051Z,1.10
2023-03-03T07:00:14.511Z,1.09
2023-03-03T07:02:41.438Z,1.25
2023-03-03T07:05:15.705Z,1.21
2023-03-03T07:07:42.790Z,1.12
2023-03-03T07:10:22.797Z,1.14
2023-03-03T07:12:49.787Z,0.96
2023-03-03T07:15:30.715Z,1.00
2023-03-03T07:17:59.893Z,1.02
2023-03-03T07:20:36.995Z,1.18
2023-03-03T07:23:25.127Z,1.06
2023-03-03T07:25:52.951Z,1.20
2023-03-03T07:28:25.543Z,1.15
2023-03-03T07:30:53.636Z,1.17
2023-03-03T07:33:34.501Z,1.30
2023-03-03T07:36:02.783Z,1.19
2023-03-03T07:38:42.438Z,1.22
2023-03-03T07:41:13.738Z,1.14
2023-03-03T07:43:44.405Z,1.15
2023-03-03T07:46:21.679Z,1.15
2023-03-03T07:48:48.841Z,0.98
2023-03-03T07:51:28.362Z,0.91
2023-03-03T07:54:02.085Z,0.99
2023-03-03T07:56:31.426Z,0.92
2023-03-03T07:58:58.595Z,0.99
2023-03-03T08:01:44.477Z,1.16
2023-03-03T08:04:33.416Z,1.03
2023-03-03T08:07:01.347Z,0.92
2023-03-03T08:09:36.650Z,0.95
2023-03-03T08:12:38.121Z,0.95
2023-03-03T08:15:25.474Z,0.96
2023-03-03T08:17:54.284Z,1.02
2023-03-03T08:20:53.952Z,1.02
2023-03-03T08:23:21.999Z,1.10
2023-03-03T08:25:50.909Z,1.11
2023-03-03T08:28:18.018Z,1.20
2023-03-03T08:30:45.431Z,1.17
2023-03-03T08:33:12.745Z,1.18
2023-03-03T08:35:39.542Z,1.32
2023-03-03T08:38:06.586Z,1.27
2023-03-03T08:40:33.864Z,1.24
2023-03-03T08:43:00.702Z,1.24
2023-03-03T08:45:27.629Z,1.26
2023-03-03T08:47:54.926Z,1.23
2023-03-03T08:50:21.851Z,1.15
2023-03-03T08:52:49.095Z,1.33
2023-03-03T08:55:16.178Z,1.26
2023-03-03T08:57:42.844Z,1.30
2023-03-03T09:00:12.347Z,1.38
2023-03-03T09:02:39.514Z,1.37
2023-03-03T09:05:07.035Z,1.36
2023-03-03T09:07:33.942Z,1.41
2023-03-03T09:10:00.585Z,1.18
2023-03-03T09:12:37.992Z,1.12
2023-03-03T09:15:32.772Z,1.36
2023-03-03T09:18:08.586Z,1.27
2023-03-03T09:20:38.138Z,1.39
2023-03-03T09:23:50.054Z,1.29
2023-03-03T09:26:29.814Z,1.29
2023-03-03T09:29:19.355Z,1.27
2023-03-03T09:31:49.644Z,1.35
2023-03-03T09:34:18.483Z,1.56
2023-03-03T09:36:45.106Z,1.52
2023-03-03T09:39:26.810Z,1.53
2023-03-03T09:42:21.784Z,1.52
2023-03-03T09:45:26.496Z,1.43
2023-03-03T09:48:20.025Z,1.53
2023-03-03T09:51:06.656Z,1.48
2023-03-03T09:54:11.888Z,1.52
2023-03-03T09:56:51.891Z,1.70
2023-03-03T09:59:43.498Z,1.64
2023-03-03T10:02:37.370Z,1.72
2023-03-03T10:05:19.314Z,1.68
2023-03-03T10:08:20.323Z,1.82
2023-03-03T10:10:53.863Z,1.93
2023-03-03T10:13:32.305Z,1.98
2023-03-03T10:16:17.892Z,1.93
2023-03-03T10:18:53.590Z,2.02
2023-03-03T10:21:25.844Z,1.94
2023-03-03T10:24:11.229Z,1.98
2023-03-03T10:27:13.849Z,1.93
2023-03-03T10:29:59.570Z,1.99
2023-03-03T10:32:38.467Z,2.26
2023-03-03T10:35:23.311Z,2.21
2023-03-03T10:38:20.346Z,2.19
2023-03-03T10:41:11.345Z,2.14
2023-03-03T10:43:52.633Z,2.04
2023-03-03T10:46:44.061Z,2.26
2023-03-03T10:49:39.623Z,2.48
2023-03-03T10:52:20.173Z,2.40
2023-03-03T10:55:05.802Z,2.45
2023-03-03T10:57:55.041Z,2.37
2023-03-03T11:00:31.339Z,2.42
2023-03-03T11:03:50.654Z,2.40
2023-03-03T11:06:22.715Z,2.44
2023-03-03T11:08:54.223Z,2.31
2023-03-03T11:11:49.463Z,2.35
2023-03-03T11:14:30.637Z,2.42
2023-03-03T11:17:24.342Z,2.62
2023-03-03T11:20:31.926Z,2.38
2023-03-03T11:23:08.791Z,2.48
2023-03-03T11:25:51.125Z,2.60
2023-03-03T11:28:27.335Z,2.70
2023-03-03T11:31:29.305Z,2.82
2023-03-03T11:34:18.009Z,2.81
2023-03-03T11:36:50.821Z,2.87
2023-03-03T11:39:21.407Z,2.80
2023-03-03T11:42:18.493Z,2.70
2023-03-03T11:44:48.814Z,2.77
2023-03-03T11:47:26.545Z,2.88
2023-03-03T11:50:19.554Z,2.93
2023-03-03T11:53:21.330Z,3.09
2023-03-03T11:55:54.667Z,3.08
2023-03-03T11:58:35.251Z,3.25
2023-03-03T12:01:28.391Z,3.35
2023-03-03T12:04:02.268Z,3.46
2023-03-03T12:07:19.112Z,3.56
2023-03-03T12:10:37.631Z,3.70
2023-03-03T12:13:41.735Z,3.57
2023-03-03T12:16:18.663Z,3.69
2023-03-03T12:19:01.113Z,3.59
2023-03-03T12:21:40.879Z,3.59
2023-03-03T12:24:20.101Z,3.42
2023-03-03T12:27:11.655Z,3.45
2023-03-03T12:29:47.156Z,3.85
2023-03-03T12:33:11.243Z,3.86
2023-03-03T12:36:14.824Z,3.71
2023-03-03T12:39:09.354Z,4.04
2023-03-03T12:41:43.167Z,4.06
2023-03-03T12:44:34.952Z,3.98
2023-03-03T12:47:08.354Z,3.81
2023-03-03T12:50:06.946Z,4.07
2023-03-03T12:52:47.216Z,4.10
2023-03-03T12:58:36.067Z,4.31
2023-03-03T13:01:28.723Z,4.39
2023-03-03T13:04:14.003Z,4.55
2023-03-03T13:07:11.602Z,4.46
2023-03-03T13:10:20.196Z,4.51
2023-03-03T13:13:10.028Z,4.39
2023-03-03T13:15:55.254Z,4.65
2023-03-03T13:18:51.010Z,4.60
2023-03-03T13:21:27.483Z,4.80
2023-03-03T13:24:24.093Z,4.75
2023-03-03T13:26:57.636Z,4.87
2023-03-03T13:29:28.767Z,4.85
2023-03-03T13:32:12.359Z,4.73
2023-03-03T13:35:07.867Z,4.77
2023-03-03T13:37:46.146Z,5.01
2023-03-03T13:40:16.949Z,5.11
2023-03-03T13:43:15.603Z,4.93
2023-03-03T13:46:14.970Z,5.04
2023-03-03T13:48:50.635Z,5.17
2023-03-03T13:52:03.687Z,5.10
2023-03-03T13:54:51.127Z,5.17
2023-03-03T13:57:48.596Z,5.18
2023-03-03T14:00:45.237Z,5.14
2023-03-03T14:03:37.254Z,5.12
2023-03-03T14:06:11.911Z,5.13
2023-03-03T14:09:01.278Z,5.46
2023-03-03T14:11:30.449Z,5.54
2023-03-03T14:14:36.196Z,5.22
2023-03-03T14:17:08.906Z,5.33
2023-03-03T14:19:39.132Z,5.30
2023-03-03T14:22:38.927Z,5.29
2023-03-03T14:25:09.226Z,5.22
2023-03-03T14:27:41.574Z,5.17
2023-03-03T14:30:29.392Z,5.32
2023-03-03T14:33:32.487Z,5.27
2023-03-03T14:36:04.620Z,5.30
2023-03-03T14:38:34.407Z,5.37
2023-03-03T14:41:36.218Z,5.38
2023-03-03T14:44:27.162Z,5.61
2023-03-03T14:47:27.732Z,5.56
2023-03-03T14:50:00.499Z,5.59
2023-03-03T14:52:29.573Z,5.64
2023-03-03T14:55:00.044Z,5.41
2023-03-03T14:57:53.194Z,5.46
2023-03-03T15:00:35.910Z,5.50
2023-03-03T15:03:22.004Z,5.66
2023-03-03T15:05:50.946Z,5.37
2023-03-03T15:08:28.696Z,5.28
2023-03-03T15:10:56.347Z,5.43
2023-03-03T15:13:35.617Z,5.49
2023-03-03T15:16:19.742Z,5.38
2023-03-03T15:19:18.764Z,5.17
2023-03-03T15:21:56.607Z,5.31
2023-03-03T15:24:33.185Z,5.19
2023-03-03T15:27:13.476Z,5.13
2023-03-03T15:30:03.074Z,5.02
2023-03-03T15:32:40.780Z,4.97
2023-03-03T15:35:25.802Z,4.97
2023-03-03T15:38:00.895Z,4.96
2023-03-03T15:40:44.360Z,4.88
2023-03-03T15:43:32.609Z,5.02
2023-03-03T15:46:25.793Z,5.18
2023-03-03T15:49:18.619Z,5.17
2023-03-03T15:52:36.394Z,4.89
2023-03-03T15:55:21.285Z,4.97
2023-03-03T15:58:15.620Z,4.69
2023-03-03T16:01:11.129Z,4.79
2023-03-03T16:03:55.482Z,4.76
2023-03-03T16:06:48.930Z,4.74
2023-03-03T16:09:56.504Z,4.57
2023-03-03T16:12:35.227Z,4.57
2023-03-03T16:15:20.094Z,4.50
2023-03-03T16:18:19.041Z,4.37
2023-03-03T16:21:20.536Z,4.41
2023-03-03T16:31:11.501Z,4.20
2023-03-03T16:34:03.990Z,4.02
2023-03-03T16:36:53.732Z,3.94
2023-03-03T16:39:33.848Z,4.00
2023-03-03T16:42:14.793Z,3.99
2023-03-03T16:45:11.328Z,3.71
2023-03-03T16:47:40.840Z,3.55
2023-03-03T16:50:43.894Z,3.53
2023-03-03T16:54:03.243Z,3.38
2023-03-03T16:56:55.156Z,3.31
2023-03-03T16:59:47.182Z,3.06
2023-03-03T17:02:46.736Z,3.11
2023-03-03T17:05:54.413Z,2.99
2023-03-03T17:09:03.118Z,2.98
2023-03-03T17:11:48.274Z,2.99
2023-03-03T17:14:56.501Z,3.06
2023-03-03T17:17:54.123Z,3.12
2023-03-03T17:20:39.646Z,2.90
2023-03-03T17:27:02.714Z,2.97
2023-03-03T17:29:51.237Z,2.97
2023-03-03T17:32:36.305Z,2.69
2023-03-03T17:35:19.941Z,2.66
2023-03-03T17:38:03.067Z,2.76
2023-03-03T17:41:17.208Z,2.75
2023-03-03T17:44:00.985Z,2.58
2023-03-03T17:46:58.343Z,2.60
2023-03-03T17:49:50.352Z,2.67
2023-03-03T17:52:32.542Z,2.50
2023-03-03T17:55:49.805Z,2.23
2023-03-03T17:58:42.994Z,2.34
2023-03-03T18:01:27.825Z,2.42
2023-03-03T18:04:31.999Z,2.39
2023-03-03T18:07:54.126Z,2.37
2023-03-03T18:11:02.053Z,2.41
2023-03-03T18:14:14.890Z,2.22
2023-03-03T18:17:29.283Z,2.16
2023-03-03T18:20:14.663Z,2.05
2023-03-03T18:22:50.956Z,2.11
2023-03-03T18:25:55.482Z,2.08
2023-03-03T18:28:23.496Z,1.59
2023-03-03T18:31:00.497Z,1.68
2023-03-03T18:33:42.290Z,1.71
2023-03-03T18:36:37.646Z,1.67
2023-03-03T18:39:05.738Z,1.68
2023-03-03T18:41:34.259Z,1.60
2023-03-03T18:44:04.741Z,1.68
2023-03-03T18:46:52.136Z,1.66
2023-03-03T18:49:19.385Z,1.74
2023-03-03T18:51:50.486Z,1.56
2023-03-03T18:54:30.937Z,1.64
2023-03-03T18:57:18.422Z,1.70
2023-03-03T19:00:12.235Z,1.55
2023-03-03T19:02:46.684Z,1.47
2023-03-03T19:05:24.664Z,1.49
2023-03-03T19:07:52.629Z,1.50
2023-03-03T19:10:58.049Z,1.53
2023-03-03T19:13:38.165Z,1.37
2023-03-03T19:16:31.335Z,1.38
2023-03-03T19:19:01.217Z,1.19
2023-03-03T19:21:33.658Z,1.14
2023-03-03T19:24:03.055Z,1.13
2023-03-03T19:27:05.694Z,1.09
2023-03-03T19:30:07.434Z,0.99
2023-03-03T19:32:57.495Z,0.98
2023-03-03T19:35:38.017Z,0.99
2023-03-03T19:38:43.607Z,0.92
2023-03-03T19:41:28.988Z,0.90
2023-03-03T19:44:46.860Z,0.79
2023-03-03T19:47:40.395Z,0.82
2023-03-03T19:50:17.077Z,0.94
2023-03-03T19:53:15.392Z,0.87
2023-03-03T19:56:06.555Z,0.73
2023-03-03T19:59:03.871Z,0.87
2023-03-03T20:01:44.628Z,0.76
2023-03-03T20:04:38.528Z,0.68
2023-03-03T20:07:40.349Z,0.75
2023-03-03T20:10:42.310Z,0.71
2023-03-03T20:13:30.582Z,0.76
2023-03-03T20:16:41.684Z,0.75
2023-03-03T20:19:22.436Z,0.51
2023-03-03T20:22:09.764Z,0.63
2023-03-03T20:25:10.814Z,0.63
2023-03-03T20:28:14.413Z,0.68
2023-03-03T20:30:59.424Z,0.64
2023-03-03T20:34:05.189Z,0.71
2023-03-03T20:36:53.777Z,0.70
2023-03-03T20:43:00.526Z,0.75
2023-03-03T20:45:50.773Z,0.82
2023-03-03T20:49:00.935Z,0.86
2023-03-03T20:52:03.091Z,1.01
2023-03-03T20:54:49.476Z,0.97
2023-03-03T20:57:34.279Z,0.99
2023-03-03T21:00:05.973Z,1.06
2023-03-03T21:02:54.026Z,1.11
2023-03-03T21:05:25.432Z,1.03
2023-03-03T21:08:09.834Z,0.98
2023-03-03T21:10:37.083Z,0.99
2023-03-03T21:13:41.178Z,1.06
2023-03-03T21:16:43.936Z,1.10
2023-03-03T21:21:55.234Z,1.17
2023-03-03T21:24:22.840Z,1.15
2023-03-03T21:26:58.118Z,1.08
2023-03-03T21:29:30.055Z,1.14
2023-03-03T21:31:58.657Z,1.04
2023-03-03T21:34:31.208Z,1.16
2023-03-03T21:36:59.485Z,1.20
2023-03-03T21:39:31.916Z,1.22
2023-03-03T21:42:07.377Z,1.24
2023-03-03T21:44:42.135Z,1.33
2023-03-03T21:47:10.807Z,1.25
2023-03-03T21:49:41.715Z,1.31
2023-03-03T21:52:09.254Z,1.25
2023-03-03T21:54:35.815Z,1.25
2023-03-03T21:57:02.435Z,1.23
2023-03-03T21:59:29.061Z,1.26
2023-03-03T22:01:55.618Z,1.27
2023-03-03T22:04:22.417Z,1.32
2023-03-03T22:06:49.097Z,1.36
2023-03-03T22:09:15.727Z,1.36
2023-03-03T22:11:42.384Z,1.40
2023-03-03T22:14:09.173Z,1.44
2023-03-03T22:16:35.841Z,1.40
2023-03-03T22:19:03.251Z,1.38
2023-03-03T22:21:30.651Z,1.33
2023-03-03T22:23:58.294Z,1.34
2023-03-03T22:26:24.877Z,1.40
2023-03-03T22:28:51.493Z,1.39
2023-03-03T22:31:19.124Z,1.45
2023-03-03T22:33:46.328Z,1.49
2023-03-03T22:36:13.091Z,1.59
2023-03-03T22:38:40.122Z,1.60
2023-03-03T22:41:06.821Z,1.63
2023-03-03T22:43:33.673Z,1.63
2023-03-03T22:46:01.281Z,1.71
2023-03-03T22:48:28.478Z,1.72
2023-03-03T22:50:55.365Z,1.69
2023-03-03T22:53:22.647Z,1.74
2023-03-03T22:55:49.587Z,1.75
2023-03-03T22:58:16.397Z,1.73
2023-03-03T23:00:43.564Z,1.75
2023-03-03T23:03:10.914Z,1.77
2023-03-03T23:05:37.981Z,1.74
2023-03-03T23:08:06.700Z,1.80
2023-03-03T23:10:33.895Z,1.51
2023-03-03T23:13:00.511Z,1.68
2023-03-03T23:15:27.127Z,1.70
2023-03-03T23:17:53.705Z,1.74
2023-03-03T23:20:24.097Z,1.82
2023-03-03T23:22:51.281Z,1.88
2023-03-03T23:25:18.228Z,1.83
2023-03-03T23:27:44.838Z,1.69
2023-03-03T23:30:13.421Z,1.73
2023-03-03T23:32:40.574Z,1.66
2023-03-03T23:35:08.043Z,1.76
2023-03-03T23:37:34.687Z,1.71
2023-03-03T23:40:01.268Z,1.73
2023-03-03T23:42:33.821Z,1.91
2023-03-03T23:45:00.532Z,1.88
2023-03-03T23:47:27.344Z,2.00
2023-03-03T23:49:53.868Z,2.00
2023-03-03T23:52:20.416Z,1.97
2023-03-03T23:54:47.113Z,1.94
2023-03-03T23:57:13.630Z,1.83
2023-03-03T23:59:40.752Z,1.69
